createdAt,value
2023-02-06T00:00:48.770Z,21.70
2023-02-06T00:03:20.331Z,18.60
2023-02-06T00:06:00.280Z,13.00
2023-02-06T00:08:39.800Z,15.20
2023-02-06T00:11:21.437Z,18.10
2023-02-06T00:13:59.696Z,5.70
2023-02-06T00:16:29.427Z,30.00
2023-02-06T00:18:59.019Z,30.00
2023-02-06T00:21:27.648Z,24.30
2023-02-06T00:23:57.768Z,18.90
2023-02-06T00:26:27.657Z,14.60
2023-02-06T00:28:54.821Z,19.80
2023-02-06T00:31:22.084Z,29.50
2023-02-06T00:33:49.562Z,38.50
2023-02-06T00:36:16.469Z,33.70
2023-02-06T00:38:47.935Z,23.30
2023-02-06T00:41:15.589Z,19.00
2023-02-06T00:43:44.857Z,21.70
2023-02-06T00:46:14.622Z,11.40
2023-02-06T00:48:44.385Z,6.90
2023-02-06T00:51:12.025Z,1.10
2023-02-06T00:53:44.330Z,18.40
2023-02-06T00:56:16.487Z,21.80
2023-02-06T00:58:50.163Z,6.30
2023-02-06T01:01:21.824Z,7.60
2023-02-06T01:03:49.020Z,4.00
2023-02-06T01:06:16.319Z,1.00
2023-02-06T01:08:43.556Z,1.00
2023-02-06T01:11:22.914Z,1.00
2023-02-06T01:13:50.128Z,15.30
2023-02-06T01:16:24.764Z,15.90
2023-02-06T01:18:53.157Z,17.90
2023-02-06T01:21:23.421Z,29.40
2023-02-06T01:23:54.748Z,35.40
2023-02-06T01:26:25.761Z,41.20
2023-02-06T01:28:53.751Z,29.90
2023-02-06T01:31:25.782Z,19.30
2023-02-06T01:33:52.998Z,13.60
2023-02-06T01:36:22.273Z,10.00
2023-02-06T01:38:50.237Z,10.30
2023-02-06T01:41:21.882Z,1.00
2023-02-06T01:44:24.473Z,1.00
2023-02-06T01:46:56.134Z,1.00
2023-02-06T01:49:40.783Z,1.00
2023-02-06T01:52:18.157Z,1.00
2023-02-06T01:54:50.938Z,7.20
2023-02-06T01:57:20.293Z,9.10
2023-02-06T01:59:54.460Z,7.00
2023-02-06T02:02:25.475Z,4.70
2023-02-06T02:04:54.116Z,10.10
2023-02-06T02:07:43.879Z,17.20
2023-02-06T02:10:19.010Z,21.20
2023-02-06T02:12:47.321Z,20.40
2023-02-06T02:15:14.668Z,18.50
2023-02-06T02:18:26.655Z,26.00
2023-02-06T02:21:13.605Z,30.40
2023-02-06T02:23:54.477Z,28.40
2023-02-06T02:27:22.900Z,18.70
2023-02-06T02:30:14.340Z,11.40
2023-02-06T02:33:05.385Z,13.50
2023-02-06T02:35:45.418Z,14.00
2023-02-06T02:38:31.081Z,16.50
2023-02-06T02:41:30.229Z,10.50
2023-02-06T02:44:10.581Z,6.90
2023-02-06T02:46:42.065Z,8.30
2023-02-06T02:49:33.108Z,11.10
2023-02-06T02:52:00.794Z,7.00
2023-02-06T02:54:28.937Z,4.50
2023-02-06T02:57:10.488Z,10.80
2023-02-06T02:59:44.464Z,24.80
2023-02-06T03:02:26.486Z,28.00
2023-02-06T03:05:04.381Z,21.50
2023-02-06T03:07:51.318Z,35.50
2023-02-06T03:10:31.090Z,27.50
2023-02-06T03:13:10.184Z,5.30
2023-02-06T03:16:08.180Z,1.00
2023-02-06T03:19:07.929Z,1.00
2023-02-06T03:21:42.668Z,1.00
2023-02-06T03:24:17.237Z,1.00
2023-02-06T03:26:50.322Z,1.00
2023-02-06T03:29:20.926Z,1.00
2023-02-06T03:31:57.588Z,1.00
2023-02-06T03:34:51.722Z,1.00
2023-02-06T03:37:25.882Z,14.70
2023-02-06T03:39:53.003Z,30.60
2023-02-06T03:42:23.935Z,49.60
2023-02-06T03:45:00.010Z,68.30
2023-02-06T03:47:29.484Z,85.70
2023-02-06T03:50:03.336Z,68.10
2023-02-06T03:52:37.507Z,60.60
2023-02-06T03:55:12.702Z,52.00
2023-02-06T03:57:43.024Z,92.80
2023-02-06T04:00:12.888Z,99.90
2023-02-06T04:02:41.996Z,99.90
2023-02-06T04:05:12.010Z,99.90
2023-02-06T04:07:39.115Z,99.90
2023-02-06T04:10:07.836Z,99.90
2023-02-06T04:12:36.084Z,99.90
2023-02-06T04:15:03.313Z,99.90
2023-02-06T04:17:46.425Z,99.90
2023-02-06T04:20:20.224Z,99.90
2023-02-06T04:22:47.197Z,99.90
2023-02-06T04:25:14.843Z,99.90
2023-02-06T04:27:43.844Z,99.90
2023-02-06T04:30:11.632Z,99.90
2023-02-06T04:32:38.598Z,99.90
2023-02-06T04:35:05.821Z,99.90
2023-02-06T04:37:33.805Z,99.90
2023-02-06T04:40:00.869Z,99.90
2023-02-06T04:42:28.103Z,99.90
2023-02-06T04:44:55.386Z,99.90
2023-02-06T04:47:22.467Z,99.90
2023-02-06T04:49:49.433Z,99.90
2023-02-06T04:52:16.546Z,99.90
2023-02-06T04:54:44.935Z,99.90
2023-02-06T04:57:13.260Z,99.90
2023-02-06T04:59:40.133Z,99.90
2023-02-06T05:02:07.353Z,99.90
2023-02-06T05:04:34.542Z,99.90
2023-02-06T05:07:05.644Z,99.90
2023-02-06T05:09:32.814Z,99.90
2023-02-06T05:12:01.486Z,99.90
2023-02-06T05:14:28.533Z,99.90
2023-02-06T05:16:57.796Z,99.90
2023-02-06T05:19:25.057Z,99.90
2023-02-06T05:21:53.937Z,99.90
2023-02-06T05:24:21.208Z,99.90
2023-02-06T05:26:48.401Z,99.90
2023-02-06T05:29:17.566Z,99.90
2023-02-06T05:31:44.730Z,99.90
2023-02-06T05:34:13.191Z,99.90
2023-02-06T05:36:40.559Z,99.90
2023-02-06T05:39:08.161Z,99.90
2023-02-06T05:41:36.868Z,99.90
2023-02-06T05:44:05.387Z,99.90
2023-02-06T05:46:33.958Z,99.90
2023-02-06T05:49:04.087Z,99.90
2023-02-06T05:51:33.919Z,99.90
2023-02-06T05:54:01.081Z,99.90
2023-02-06T05:56:31.417Z,99.90
2023-02-06T05:58:59.788Z,99.90
2023-02-06T06:01:29.358Z,99.90
2023-02-06T06:03:58.447Z,99.90
2023-02-06T06:06:25.399Z,99.90
2023-02-06T06:08:52.574Z,99.90
2023-02-06T06:11:19.912Z,99.90
2023-02-06T06:13:47.024Z,99.90
2023-02-06T06:16:14.145Z,99.90
2023-02-06T06:18:41.106Z,99.90
2023-02-06T06:21:08.315Z,99.90
2023-02-06T06:23:35.671Z,99.90
2023-02-06T06:26:03.032Z,99.90
2023-02-06T06:28:30.260Z,99.90
2023-02-06T06:31:05.399Z,99.90
2023-02-06T06:33:33.359Z,99.90
2023-02-06T06:36:00.854Z,99.90
2023-02-06T06:38:27.839Z,99.90
2023-02-06T06:40:55.353Z,99.90
2023-02-06T06:43:23.741Z,99.90
2023-02-06T06:45:52.326Z,99.90
2023-02-06T06:48:21.826Z,99.90
2023-02-06T06:50:57.729Z,99.90
2023-02-06T06:54:16.880Z,99.90
2023-02-06T06:57:01.263Z,99.90
2023-02-06T08:32:02.460Z,38.80
2023-02-06T08:34:29.643Z,23.60
2023-02-06T08:36:56.606Z,55.90
2023-02-06T08:39:23.823Z,24.80
2023-02-06T08:41:50.783Z,20.70
2023-02-06T08:44:18.472Z,1.00
2023-02-06T08:46:47.691Z,1.00
2023-02-06T08:49:17.243Z,1.00
2023-02-06T08:51:44.946Z,1.00
2023-02-06T08:54:14.220Z,1.00
2023-02-06T08:56:41.704Z,1.00
2023-02-06T08:59:09.194Z,1.00
2023-02-06T09:01:37.449Z,1.00
2023-02-06T09:04:08.324Z,1.00
2023-02-06T09:06:43.424Z,1.00
2023-02-06T09:09:11.895Z,1.00
2023-02-06T09:11:39.299Z,1.00
2023-02-06T09:16:48.695Z,1.00
2023-02-06T09:19:15.711Z,1.00
2023-02-06T09:21:42.935Z,1.00
2023-02-06T09:24:10.112Z,1.00
2023-02-06T09:26:58.038Z,1.00
2023-02-06T09:29:26.516Z,1.00
2023-02-06T09:31:53.746Z,1.00
2023-02-06T09:34:20.726Z,1.00
2023-02-06T09:36:47.804Z,1.00
2023-02-06T09:39:14.758Z,1.00
2023-02-06T09:41:59.825Z,1.00
2023-02-06T09:44:37.077Z,1.00
2023-02-06T09:47:25.135Z,1.00
2023-02-06T09:50:05.624Z,1.00
2023-02-06T09:52:43.684Z,1.00
2023-02-06T09:55:30.672Z,1.00
2023-02-06T10:04:33.727Z,1.00
2023-02-06T10:07:22.400Z,1.00
2023-02-06T10:10:04.737Z,1.00
2023-02-06T10:12:57.860Z,1.00
2023-02-06T10:15:45.220Z,1.00
2023-02-06T10:24:45.135Z,1.00
2023-02-06T10:27:14.618Z,1.00
2023-02-06T10:30:06.853Z,1.00
2023-02-06T10:33:42.410Z,1.00
2023-02-06T10:40:10.171Z,1.00
2023-02-06T10:43:25.008Z,1.00
2023-02-06T10:46:32.248Z,1.00
2023-02-06T10:53:29.900Z,1.00
2023-02-06T11:03:06.655Z,1.00
2023-02-06T13:56:15.992Z,1.00
2023-02-06T13:59:11.342Z,1.00
2023-02-06T14:01:40.314Z,1.00
2023-02-06T14:04:33.580Z,99.90
2023-02-06T14:07:25.986Z,99.90
2023-02-06T14:10:37.147Z,99.90
2023-02-06T14:13:33.108Z,99.90
2023-02-06T14:17:05.395Z,99.90
2023-02-06T14:19:45.524Z,99.90
2023-02-06T14:22:54.688Z,99.90
2023-02-06T14:25:53.106Z,99.90
2023-02-06T14:31:48.837Z,99.90
2023-02-06T14:34:37.161Z,99.90
2023-02-06T14:37:33.828Z,99.90
2023-02-06T14:40:23.762Z,99.90
2023-02-06T14:42:57.353Z,99.90
2023-02-06T14:46:05.409Z,99.90
2023-02-06T14:51:49.328Z,99.90
2023-02-06T14:54:56.682Z,99.90
2023-02-06T15:00:23.308Z,99.90
2023-02-06T15:03:09.613Z,99.90
2023-02-06T15:09:05.016Z,99.90
2023-02-06T15:11:56.785Z,99.90
2023-02-06T15:14:55.803Z,99.90
2023-02-06T15:17:50.784Z,99.90
2023-02-06T15:20:20.934Z,99.90
2023-02-06T15:22:49.257Z,99.90
2023-02-06T15:25:46.786Z,99.90
2023-02-06T15:28:26.393Z,99.90
2023-02-06T15:31:46.005Z,99.90
2023-02-06T15:34:17.020Z,99.90
2023-02-06T15:36:46.616Z,99.90
2023-02-06T15:40:28.626Z,99.90
2023-02-06T15:43:06.924Z,99.90
2023-02-06T15:45:39.699Z,1.00
2023-02-06T15:48:28.776Z,1.00
2023-02-06T15:51:24.484Z,1.00
2023-02-06T15:54:05.999Z,1.00
2023-02-06T15:56:38.470Z,1.00
2023-02-06T16:02:11.948Z,1.00
2023-02-06T16:04:43.730Z,1.00
2023-02-06T16:10:12.607Z,1.00
2023-02-06T16:12:50.991Z,1.00
2023-02-06T16:16:02.890Z,1.00
2023-02-06T16:18:37.184Z,1.00
2023-02-06T16:21:17.454Z,1.00
2023-02-06T16:24:02.602Z,1.00
2023-02-06T16:26:32.642Z,1.00
2023-02-06T16:29:24.247Z,1.00
2023-02-06T16:32:03.526Z,1.00
2023-02-06T16:34:39.926Z,1.00
2023-02-06T16:37:14.660Z,1.00
2023-02-06T16:39:43.562Z,1.00
2023-02-06T16:42:27.837Z,1.00
2023-02-06T16:48:22.323Z,1.00
2023-02-06T16:50:49.863Z,1.00
2023-02-06T16:53:24.539Z,1.00
2023-02-06T16:55:52.096Z,1.00
2023-02-06T16:58:36.073Z,1.00
2023-02-06T17:01:19.801Z,1.00
2023-02-06T17:03:48.351Z,1.00
2023-02-06T17:06:19.143Z,1.00
2023-02-06T17:08:58.763Z,1.00
2023-02-06T17:11:26.147Z,1.00
2023-02-06T17:13:53.644Z,1.00
2023-02-06T17:16:24.948Z,1.00
2023-02-06T17:18:53.202Z,1.00
2023-02-06T17:21:24.804Z,1.00
2023-02-06T17:23:52.464Z,1.00
2023-02-06T17:26:22.781Z,1.00
2023-02-06T17:28:57.771Z,1.00
2023-02-06T17:31:25.099Z,1.00
2023-02-06T17:33:52.187Z,1.00
2023-02-06T17:36:29.659Z,1.00
2023-02-06T17:38:59.049Z,1.00
2023-02-06T17:41:30.977Z,1.00
2023-02-06T17:43:57.975Z,1.00
2023-02-06T17:46:28.184Z,1.00
2023-02-06T17:48:55.427Z,1.00
2023-02-06T17:51:23.070Z,1.00
2023-02-06T17:54:44.923Z,1.00
2023-02-06T17:57:21.826Z,1.00
2023-02-06T19:28:56.574Z,1.00
2023-02-06T20:12:46.690Z,1.00
2023-02-06T20:15:16.408Z,1.00
2023-02-06T20:17:50.642Z,1.00
2023-02-06T20:20:18.103Z,1.00
2023-02-06T20:22:45.472Z,1.00
2023-02-06T20:25:13.227Z,1.00
2023-02-06T20:27:40.405Z,1.00
2023-02-06T20:30:14.568Z,1.00
2023-02-06T20:32:41.744Z,1.00
2023-02-06T20:35:12.151Z,1.00
2023-02-06T20:37:39.564Z,1.00
2023-02-06T20:40:06.929Z,1.00
2023-02-06T20:42:35.009Z,1.00
2023-02-06T20:45:02.141Z,1.00
2023-02-06T20:47:34.191Z,1.00
2023-02-06T20:50:02.734Z,1.00
2023-02-06T20:52:30.568Z,1.00
2023-02-06T20:54:57.984Z,1.00
2023-02-06T20:57:25.923Z,1.00
2023-02-06T20:59:53.799Z,1.00
2023-02-06T21:02:23.052Z,1.00
2023-02-06T21:04:54.728Z,1.00
2023-02-06T21:07:23.994Z,1.00
2023-02-06T21:09:51.807Z,1.00
2023-02-06T21:12:20.195Z,1.00
2023-02-06T21:14:48.228Z,1.00
2023-02-06T21:17:15.649Z,1.00
2023-02-06T21:19:42.638Z,1.00
2023-02-06T21:22:12.575Z,1.00
2023-02-06T21:24:39.456Z,1.00
2023-02-06T21:27:07.383Z,1.00
2023-02-06T21:29:34.425Z,1.00
2023-02-06T21:32:13.004Z,1.00
2023-02-06T21:34:43.967Z,1.00
2023-02-06T21:37:23.895Z,1.00
2023-02-06T21:39:51.752Z,1.00
2023-02-06T21:42:26.836Z,1.00
2023-02-06T21:44:54.842Z,1.00
2023-02-06T21:47:26.624Z,1.00
2023-02-06T21:49:55.060Z,1.00
2023-02-06T21:55:07.876Z,1.00
2023-02-06T21:57:35.081Z,1.00
2023-02-06T22:00:05.116Z,1.00
2023-02-06T22:02:52.162Z,1.00
2023-02-06T22:05:27.272Z,1.00
2023-02-06T22:08:08.909Z,1.00
2023-02-06T22:10:38.355Z,1.00
2023-02-06T22:13:07.551Z,1.00
2023-02-06T22:15:36.317Z,1.00
2023-02-06T22:18:05.223Z,1.00
2023-02-06T22:20:32.278Z,1.00
2023-02-06T22:22:59.228Z,1.00
2023-02-06T22:25:31.384Z,1.00
2023-02-06T22:27:58.528Z,1.00
2023-02-06T22:30:26.813Z,1.00
2023-02-06T22:32:53.856Z,1.00
2023-02-06T22:35:21.306Z,1.00
2023-02-06T22:37:48.330Z,1.00
2023-02-06T22:40:18.776Z,1.00
2023-02-06T22:42:45.942Z,1.00
2023-02-06T22:45:12.968Z,1.00
2023-02-06T22:47:40.121Z,1.00
2023-02-06T22:50:07.857Z,1.00
2023-02-06T22:52:56.860Z,1.00
2023-02-06T22:55:23.950Z,1.00
2023-02-06T22:57:53.717Z,1.00
2023-02-06T23:00:22.210Z,1.00
2023-02-06T23:02:49.187Z,1.00
2023-02-06T23:05:17.821Z,1.00
2023-02-06T23:07:44.998Z,1.00
2023-02-06T23:10:12.112Z,1.00
2023-02-06T23:12:39.150Z,1.00
2023-02-06T23:15:06.346Z,1.00
2023-02-06T23:17:34.518Z,1.00
2023-02-06T23:20:04.770Z,1.00
2023-02-06T23:22:34.969Z,1.00
2023-02-06T23:25:01.901Z,1.00
2023-02-06T23:27:39.950Z,1.00
2023-02-06T23:30:12.319Z,1.00
2023-02-06T23:32:45.506Z,1.00
2023-02-06T23:35:16.364Z,1.00
2023-02-06T23:37:48.371Z,1.00
2023-02-06T23:40:41.917Z,1.00
2023-02-06T23:43:16.205Z,1.00
2023-02-06T23:45:47.608Z,1.00
2023-02-06T23:48:14.913Z,1.00
2023-02-06T23:50:44.972Z,1.00
2023-02-06T23:53:13.336Z,1.00
2023-02-06T23:55:42.132Z,1.00
